createdAt,value
2023-02-17T00:00:55.851Z,32.17
2023-02-17T00:03:25.316Z,35.30
2023-02-17T00:05:53.448Z,32.97
2023-02-17T00:08:21.470Z,33.23
2023-02-17T00:10:58.951Z,36.03
2023-02-17T00:13:26.948Z,36.63
2023-02-17T00:15:55.012Z,38.97
2023-02-17T00:18:24.560Z,36.03
2023-02-17T00:20:52.670Z,37.83
2023-02-17T00:23:20.487Z,39.37
2023-02-17T00:25:48.231Z,39.00
2023-02-17T00:28:15.982Z,37.47
2023-02-17T00:30:43.743Z,39.63
2023-02-17T00:33:11.457Z,35.53
2023-02-17T00:35:42.546Z,41.47
2023-02-17T00:38:10.335Z,36.93
2023-02-17T00:40:38.915Z,38.33
2023-02-17T00:43:06.747Z,39.80
2023-02-17T00:45:34.869Z,37.00
2023-02-17T00:48:02.638Z,38.47
2023-02-17T00:50:30.474Z,37.33
2023-02-17T00:53:00.661Z,38.17
2023-02-17T00:55:28.396Z,39.77
2023-02-17T00:57:56.122Z,37.53
2023-02-17T01:00:24.154Z,39.30
2023-02-17T01:02:52.386Z,37.20
2023-02-17T01:05:20.356Z,39.73
2023-02-17T01:07:48.121Z,38.57
2023-02-17T01:10:17.381Z,35.30
2023-02-17T01:12:45.133Z,41.43
2023-02-17T01:15:13.187Z,36.70
2023-02-17T01:17:41.026Z,47.10
2023-02-17T01:20:09.597Z,40.63
2023-02-17T01:22:40.206Z,40.57
2023-02-17T01:25:08.327Z,43.50
2023-02-17T01:27:37.798Z,38.13
2023-02-17T01:30:06.525Z,42.67
2023-02-17T01:32:34.269Z,37.60
2023-02-17T01:35:02.032Z,39.50
2023-02-17T01:37:29.745Z,40.37
2023-02-17T01:39:57.477Z,38.90
2023-02-17T01:42:25.220Z,39.00
2023-02-17T01:45:30.630Z,41.17
2023-02-17T01:48:03.352Z,46.03
2023-02-17T01:50:34.303Z,42.53
2023-02-17T01:53:05.019Z,42.83
2023-02-17T01:55:34.973Z,41.07
2023-02-17T01:58:04.387Z,43.17
2023-02-17T02:00:34.611Z,42.60
2023-02-17T02:03:06.448Z,43.20
2023-02-17T02:05:36.565Z,43.10
2023-02-17T02:08:05.942Z,39.97
2023-02-17T02:10:33.659Z,40.77
2023-02-17T02:13:01.401Z,37.27
2023-02-17T02:15:35.120Z,39.73
2023-02-17T02:18:26.312Z,40.33
2023-02-17T02:21:33.335Z,45.23
2023-02-17T02:24:22.837Z,46.67
2023-02-17T02:27:29.138Z,40.50
2023-02-17T02:30:27.910Z,42.37
2023-02-17T02:33:05.254Z,43.83
2023-02-17T02:35:41.863Z,46.40
2023-02-17T02:38:15.519Z,44.40
2023-02-17T02:40:48.222Z,43.60
2023-02-17T02:43:16.814Z,44.60
2023-02-17T02:45:44.583Z,44.03
2023-02-17T02:48:13.638Z,44.67
2023-02-17T02:51:16.109Z,48.97
2023-02-17T02:53:59.970Z,52.40
2023-02-17T02:56:41.866Z,47.23
2023-02-17T02:59:20.042Z,53.90
2023-02-17T03:01:55.080Z,54.80
2023-02-17T03:04:36.184Z,53.13
2023-02-17T03:07:09.840Z,53.17
2023-02-17T03:09:37.989Z,57.73
2023-02-17T03:12:06.082Z,59.27
2023-02-17T03:14:38.475Z,68.10
2023-02-17T03:17:06.309Z,69.23
2023-02-17T03:19:35.739Z,67.80
2023-02-17T03:22:09.715Z,71.20
2023-02-17T03:24:37.467Z,68.30
2023-02-17T03:27:05.256Z,69.97
2023-02-17T03:29:32.993Z,73.27
2023-02-17T03:32:01.324Z,73.53
2023-02-17T03:34:29.178Z,76.40
2023-02-17T03:36:58.298Z,71.37
2023-02-17T03:39:26.269Z,75.20
2023-02-17T03:41:54.041Z,71.30
2023-02-17T03:44:21.770Z,74.80
2023-02-17T03:46:49.546Z,76.97
2023-02-17T03:49:17.255Z,75.13
2023-02-17T03:51:45.001Z,86.60
2023-02-17T03:54:14.062Z,71.50
2023-02-17T03:56:41.840Z,75.33
2023-02-17T03:59:09.686Z,76.33
2023-02-17T04:01:37.541Z,74.23
2023-02-17T04:04:05.353Z,72.97
2023-02-17T04:06:33.286Z,72.13
2023-02-17T04:09:01.083Z,73.87
2023-02-17T04:11:30.235Z,73.90
2023-02-17T04:13:57.927Z,75.57
2023-02-17T04:16:25.732Z,84.93
2023-02-17T04:18:53.494Z,81.03
2023-02-17T04:21:21.225Z,79.67
2023-02-17T04:23:49.029Z,80.23
2023-02-17T04:26:16.818Z,84.87
2023-02-17T04:28:45.842Z,84.70
2023-02-17T04:31:13.695Z,84.60
2023-02-17T04:33:41.458Z,90.50
2023-02-17T04:36:09.572Z,88.83
2023-02-17T04:38:37.322Z,90.70
2023-02-17T04:41:06.250Z,87.07
2023-02-17T04:43:34.379Z,92.87
2023-02-17T04:46:03.679Z,88.33
2023-02-17T04:48:31.493Z,92.00
2023-02-17T04:50:59.278Z,86.00
2023-02-17T04:53:27.031Z,86.83
2023-02-17T04:55:54.770Z,84.77
2023-02-17T04:58:23.070Z,80.67
2023-02-17T05:00:52.089Z,77.13
2023-02-17T05:03:21.273Z,75.67
2023-02-17T05:05:50.211Z,73.87
2023-02-17T05:08:17.940Z,79.50
2023-02-17T05:10:45.710Z,71.07
2023-02-17T05:13:13.450Z,73.80
2023-02-17T05:15:41.202Z,64.43
2023-02-17T05:18:09.000Z,63.80
2023-02-17T05:20:38.140Z,68.23
2023-02-17T05:23:06.052Z,66.53
2023-02-17T05:25:33.810Z,64.57
2023-02-17T05:28:01.674Z,64.03
2023-02-17T05:30:29.658Z,63.97
2023-02-17T05:32:57.436Z,62.43
2023-02-17T05:35:25.161Z,62.33
2023-02-17T05:37:54.241Z,63.63
2023-02-17T05:40:22.105Z,58.53
2023-02-17T05:42:49.808Z,56.70
2023-02-17T05:45:17.570Z,57.80
2023-02-17T05:47:45.337Z,54.67
2023-02-17T05:50:13.253Z,53.23
2023-02-17T05:52:40.995Z,54.53
2023-02-17T05:55:10.326Z,57.40
2023-02-17T05:57:38.103Z,55.13
2023-02-17T06:00:07.472Z,54.53
2023-02-17T06:02:35.197Z,56.03
2023-02-17T06:05:03.175Z,49.33
2023-02-17T06:07:31.013Z,51.90
2023-02-17T06:09:58.782Z,48.50
2023-02-17T06:12:28.036Z,45.30
2023-02-17T06:14:55.792Z,47.23
2023-02-17T06:17:23.600Z,45.17
2023-02-17T06:19:51.287Z,46.63
2023-02-17T06:22:19.370Z,45.73
2023-02-17T06:24:47.360Z,46.20
2023-02-17T06:27:15.092Z,47.87
2023-02-17T06:29:44.576Z,44.73
2023-02-17T06:32:12.373Z,46.10
2023-02-17T06:34:40.154Z,47.63
2023-02-17T06:37:08.151Z,42.90
2023-02-17T06:39:35.940Z,47.03
2023-02-17T06:42:03.809Z,43.87
2023-02-17T06:44:31.628Z,42.33
2023-02-17T06:47:00.690Z,42.57
2023-02-17T06:49:28.415Z,41.57
2023-02-17T06:51:56.164Z,44.23
2023-02-17T06:54:23.881Z,40.47
2023-02-17T06:56:51.601Z,41.20
2023-02-17T06:59:19.388Z,39.53
2023-02-17T07:01:49.325Z,38.93
2023-02-17T07:04:18.513Z,37.43
2023-02-17T07:06:46.248Z,37.33
2023-02-17T07:09:14.022Z,36.13
2023-02-17T07:11:42.005Z,38.97
2023-02-17T07:14:09.710Z,38.37
2023-02-17T07:16:37.456Z,35.40
2023-02-17T07:19:05.156Z,36.20
2023-02-17T07:21:34.184Z,36.13
2023-02-17T07:24:01.886Z,36.87
2023-02-17T07:26:29.629Z,34.50
2023-02-17T07:28:57.412Z,35.10
2023-02-17T07:31:25.144Z,33.53
2023-02-17T07:33:52.941Z,33.30
2023-02-17T07:36:20.769Z,30.80
2023-02-17T07:38:50.430Z,32.03
2023-02-17T07:41:20.197Z,31.17
2023-02-17T07:43:48.736Z,32.53
2023-02-17T07:46:16.545Z,33.47
2023-02-17T07:48:44.274Z,31.40
2023-02-17T07:51:16.361Z,30.83
2023-02-17T07:53:44.508Z,30.57
2023-02-17T07:56:15.745Z,29.57
2023-02-17T07:58:44.680Z,25.13
2023-02-17T08:01:14.489Z,29.87
2023-02-17T08:03:42.955Z,27.50
2023-02-17T08:06:12.097Z,24.63
2023-02-17T08:08:57.683Z,25.20
2023-02-17T08:11:49.012Z,24.10
2023-02-17T08:14:18.063Z,23.97
2023-02-17T08:16:45.860Z,24.67
2023-02-17T08:19:13.603Z,24.30
2023-02-17T08:21:41.479Z,25.53
2023-02-17T08:24:09.355Z,24.03
2023-02-17T08:26:38.555Z,23.73
2023-02-17T08:29:06.535Z,21.03
2023-02-17T08:31:36.781Z,22.33
2023-02-17T08:34:07.179Z,20.87
2023-02-17T08:36:37.364Z,23.13
2023-02-17T08:39:06.064Z,23.37
2023-02-17T08:41:36.660Z,23.10
2023-02-17T08:44:09.876Z,23.57
2023-02-17T08:46:38.198Z,20.87
2023-02-17T08:49:07.230Z,21.83
2023-02-17T08:51:35.845Z,19.90
2023-02-17T08:54:04.760Z,17.90
2023-02-17T08:56:32.818Z,22.03
2023-02-17T08:59:00.962Z,19.47
2023-02-17T09:01:30.458Z,19.30
2023-02-17T09:03:59.657Z,20.17
2023-02-17T09:06:33.919Z,20.73
2023-02-17T09:09:02.309Z,22.43
2023-02-17T09:11:30.158Z,22.97
2023-02-17T09:13:58.102Z,21.77
2023-02-17T09:16:26.231Z,21.50
2023-02-17T09:18:55.632Z,22.43
2023-02-17T09:21:23.689Z,23.03
2023-02-17T09:23:51.923Z,22.70
2023-02-17T09:26:19.943Z,21.93
2023-02-17T09:28:48.400Z,21.80
2023-02-17T09:31:20.229Z,21.57
2023-02-17T09:33:49.077Z,22.83
2023-02-17T09:36:20.813Z,20.80
2023-02-17T09:38:48.858Z,21.83
2023-02-17T09:41:20.194Z,20.13
2023-02-17T09:43:48.599Z,21.83
2023-02-17T09:46:21.493Z,21.33
2023-02-17T09:48:50.623Z,21.47
2023-02-17T09:51:27.413Z,21.50
2023-02-17T09:54:03.937Z,23.73
2023-02-17T09:56:38.315Z,23.97
2023-02-17T09:59:15.108Z,21.53
2023-02-17T10:01:45.294Z,23.80
2023-02-17T10:04:18.299Z,23.63
2023-02-17T10:06:49.622Z,24.67
2023-02-17T10:09:24.343Z,23.13
2023-02-17T10:11:58.130Z,24.53
2023-02-17T10:14:31.514Z,24.20
2023-02-17T10:17:05.585Z,23.67
2023-02-17T10:19:38.425Z,26.33
2023-02-17T10:22:15.006Z,23.93
2023-02-17T10:24:42.794Z,25.53
2023-02-17T10:27:25.912Z,25.47
2023-02-17T10:30:05.403Z,25.80
2023-02-17T10:32:40.423Z,24.93
2023-02-17T10:35:16.335Z,23.70
2023-02-17T10:37:50.046Z,23.43
2023-02-17T10:40:21.766Z,24.30
2023-02-17T10:42:51.651Z,24.47
2023-02-17T10:45:27.121Z,25.07
2023-02-17T10:48:00.007Z,23.03
2023-02-17T10:50:27.839Z,21.43
2023-02-17T10:52:57.543Z,23.30
2023-02-17T10:55:34.666Z,22.00
2023-02-17T10:58:11.955Z,19.10
2023-02-17T11:00:39.843Z,20.57
2023-02-17T11:03:07.620Z,20.73
2023-02-17T11:05:36.130Z,19.33
2023-02-17T11:08:07.976Z,19.87
2023-02-17T11:10:38.601Z,17.27
2023-02-17T11:13:29.467Z,16.83
2023-02-17T11:15:57.487Z,17.67
2023-02-17T11:18:29.502Z,19.27
2023-02-17T11:21:06.416Z,15.47
2023-02-17T11:23:36.351Z,15.40
2023-02-17T11:26:10.937Z,14.50
2023-02-17T11:28:38.954Z,15.07
2023-02-17T11:31:07.277Z,13.20
2023-02-17T11:33:38.072Z,13.83
2023-02-17T11:36:07.810Z,13.53
2023-02-17T11:38:45.240Z,14.20
2023-02-17T11:41:13.207Z,12.60
2023-02-17T11:43:51.394Z,12.93
2023-02-17T11:46:25.922Z,11.77
2023-02-17T11:49:16.356Z,12.93
2023-02-17T11:51:54.275Z,13.33
2023-02-17T11:54:29.174Z,12.50
2023-02-17T11:57:18.283Z,11.23
2023-02-17T11:59:59.141Z,9.87
2023-02-17T12:02:44.178Z,12.33
2023-02-17T12:05:22.779Z,11.93
2023-02-17T12:08:08.182Z,11.87
2023-02-17T12:10:49.000Z,10.73
2023-02-17T12:13:30.369Z,11.27
2023-02-17T12:16:12.823Z,9.03
2023-02-17T12:18:50.078Z,10.10
2023-02-17T12:21:30.192Z,9.23
2023-02-17T12:24:14.612Z,10.47
2023-02-17T12:26:48.273Z,9.47
2023-02-17T12:29:31.098Z,7.80
2023-02-17T12:32:19.810Z,9.00
2023-02-17T12:34:55.109Z,8.70
2023-02-17T12:37:26.239Z,7.70
2023-02-17T12:39:57.382Z,8.67
2023-02-17T12:42:31.484Z,8.40
2023-02-17T12:45:04.383Z,8.50
2023-02-17T12:47:39.572Z,8.63
2023-02-17T12:50:16.637Z,7.60
2023-02-17T12:52:47.398Z,9.37
2023-02-17T12:55:22.011Z,7.17
2023-02-17T12:57:57.055Z,8.37
2023-02-17T13:00:28.681Z,6.90
2023-02-17T13:02:59.500Z,9.00
2023-02-17T13:05:31.387Z,6.53
2023-02-17T13:08:02.659Z,6.43
2023-02-17T13:10:36.841Z,6.17
2023-02-17T13:13:08.740Z,6.33
2023-02-17T13:15:39.867Z,7.13
2023-02-17T13:18:13.112Z,6.17
2023-02-17T13:20:57.114Z,6.83
2023-02-17T13:23:43.807Z,5.60
2023-02-17T13:26:35.668Z,7.07
2023-02-17T13:29:20.063Z,5.70
2023-02-17T13:31:51.457Z,6.50
2023-02-17T13:34:32.173Z,5.20
2023-02-17T13:37:03.354Z,5.03
2023-02-17T13:39:40.183Z,4.83
2023-02-17T13:42:36.062Z,5.10
2023-02-17T13:45:15.065Z,4.90
2023-02-17T13:47:43.570Z,4.77
2023-02-17T13:50:28.055Z,4.87
2023-02-17T13:52:56.328Z,5.23
2023-02-17T13:55:24.837Z,5.13
2023-02-17T13:57:55.443Z,5.30
2023-02-17T14:00:28.216Z,5.93
2023-02-17T14:02:58.453Z,5.97
2023-02-17T14:05:35.582Z,5.97
2023-02-17T14:08:07.034Z,4.17
2023-02-17T14:10:35.685Z,4.13
2023-02-17T14:13:03.554Z,4.27
2023-02-17T14:15:33.144Z,7.17
2023-02-17T14:18:00.927Z,4.53
2023-02-17T14:20:31.826Z,4.20
2023-02-17T14:23:05.534Z,4.30
2023-02-17T14:25:48.319Z,3.70
2023-02-17T14:28:21.395Z,5.43
2023-02-17T14:30:52.113Z,4.67
2023-02-17T14:33:23.741Z,3.83
2023-02-17T14:35:54.139Z,3.80
2023-02-17T14:38:25.018Z,4.73
2023-02-17T14:40:55.765Z,4.40
2023-02-17T14:43:24.185Z,4.90
2023-02-17T14:45:53.271Z,8.53
2023-02-17T14:48:21.136Z,6.33
2023-02-17T14:50:49.554Z,5.13
2023-02-17T14:53:25.580Z,5.13
2023-02-17T14:55:59.455Z,4.80
2023-02-17T14:58:28.202Z,5.10
2023-02-17T15:00:57.928Z,4.77
2023-02-17T15:03:25.836Z,6.07
2023-02-17T15:05:55.945Z,5.80
2023-02-17T15:08:30.202Z,7.70
2023-02-17T15:10:57.978Z,5.27
2023-02-17T15:13:26.439Z,5.67
2023-02-17T15:15:54.374Z,5.80
2023-02-17T15:18:23.634Z,10.70
2023-02-17T15:20:53.920Z,17.53
2023-02-17T15:23:25.548Z,8.77
2023-02-17T15:25:54.772Z,8.37
2023-02-17T15:28:22.791Z,6.33
2023-02-17T15:30:53.046Z,6.70
2023-02-17T15:33:23.549Z,7.20
2023-02-17T15:35:54.508Z,8.07
2023-02-17T15:38:23.213Z,6.73
2023-02-17T15:40:51.438Z,7.13
2023-02-17T15:43:22.839Z,8.10
2023-02-17T15:45:50.675Z,8.40
2023-02-17T15:48:25.613Z,8.13
2023-02-17T15:50:54.314Z,8.80
2023-02-17T15:53:22.253Z,9.03
2023-02-17T15:55:51.151Z,9.83
2023-02-17T15:58:22.054Z,12.30
2023-02-17T16:00:51.217Z,12.43
2023-02-17T16:03:19.264Z,12.33
2023-02-17T16:05:48.849Z,12.57
2023-02-17T16:08:16.675Z,11.87
2023-02-17T16:10:46.720Z,12.37
2023-02-17T16:13:17.614Z,14.50
2023-02-17T16:15:45.709Z,16.53
2023-02-17T16:18:20.313Z,14.37
2023-02-17T16:20:49.663Z,16.47
2023-02-17T16:23:17.455Z,16.53
2023-02-17T16:25:47.211Z,15.87
2023-02-17T16:28:17.723Z,16.33
2023-02-17T16:30:46.343Z,15.87
2023-02-17T16:33:14.516Z,16.27
2023-02-17T16:35:43.501Z,17.30
2023-02-17T16:38:17.097Z,16.87
2023-02-17T16:40:48.227Z,15.07
2023-02-17T16:43:16.554Z,15.87
2023-02-17T16:45:51.447Z,18.70
2023-02-17T16:48:19.962Z,15.53
2023-02-17T16:50:47.746Z,16.33
2023-02-17T16:53:16.806Z,18.53
2023-02-17T16:55:45.619Z,15.60
2023-02-17T16:58:17.623Z,16.20
2023-02-17T17:00:46.219Z,16.30
2023-02-17T17:03:14.604Z,16.47
2023-02-17T17:05:42.933Z,13.50
2023-02-17T17:08:26.988Z,14.80
2023-02-17T17:10:54.946Z,13.73
2023-02-17T17:13:22.655Z,11.77
2023-02-17T17:15:50.428Z,11.50
2023-02-17T17:18:21.818Z,10.67
2023-02-17T17:20:50.707Z,11.20
2023-02-17T17:23:19.080Z,10.63
2023-02-17T17:25:48.587Z,10.40
2023-02-17T17:28:18.576Z,9.87
2023-02-17T17:30:47.004Z,10.30
2023-02-17T17:33:14.838Z,9.87
2023-02-17T17:35:43.289Z,9.53
2023-02-17T17:38:15.343Z,10.63
2023-02-17T17:40:49.137Z,10.17
2023-02-17T17:43:20.196Z,9.23
2023-02-17T17:45:48.239Z,8.70
2023-02-17T17:48:16.898Z,8.07
2023-02-17T17:50:45.116Z,11.07
2023-02-17T17:53:13.030Z,10.23
2023-02-17T17:55:40.912Z,8.23
2023-02-17T17:58:12.789Z,8.17
2023-02-17T18:00:41.955Z,7.70
2023-02-17T18:03:09.764Z,7.73
2023-02-17T18:05:38.214Z,7.70
2023-02-17T18:08:09.305Z,7.43
2023-02-17T18:10:39.223Z,7.70
2023-02-17T18:13:11.139Z,7.23
2023-02-17T18:15:39.195Z,7.17
2023-02-17T18:18:08.715Z,7.30
2023-02-17T18:20:36.488Z,6.97
2023-02-17T18:23:04.250Z,7.60
2023-02-17T18:25:32.231Z,6.83
2023-02-17T18:28:00.162Z,6.30
2023-02-17T18:30:28.205Z,6.60
2023-02-17T18:32:56.179Z,6.27
2023-02-17T18:35:25.315Z,5.50
2023-02-17T18:37:53.651Z,5.57
2023-02-17T18:40:22.521Z,5.33
2023-02-17T18:42:50.287Z,6.90
2023-02-17T18:45:18.441Z,8.90
2023-02-17T18:47:46.542Z,11.10
2023-02-17T18:50:15.847Z,9.53
2023-02-17T18:52:45.321Z,5.23
2023-02-17T18:55:13.700Z,6.03
2023-02-17T18:57:41.619Z,8.00
2023-02-17T19:00:11.323Z,8.03
2023-02-17T19:02:39.940Z,4.17
2023-02-17T19:05:10.450Z,6.63
2023-02-17T19:07:38.346Z,6.17
2023-02-17T19:10:09.012Z,6.30
2023-02-17T19:12:37.899Z,7.13
2023-02-17T19:15:06.059Z,5.07
2023-02-17T19:17:33.890Z,6.87
2023-02-17T19:20:01.768Z,5.57
2023-02-17T19:22:29.629Z,6.20
2023-02-17T19:24:57.377Z,8.63
2023-02-17T19:27:26.678Z,4.90
2023-02-17T19:29:54.756Z,5.73
2023-02-17T19:32:22.520Z,4.07
2023-02-17T19:34:50.585Z,5.10
2023-02-17T19:37:18.305Z,4.37
2023-02-17T19:39:46.540Z,3.37
2023-02-17T19:42:14.339Z,2.97
2023-02-17T19:44:43.542Z,4.43
2023-02-17T19:47:11.294Z,5.00
2023-02-17T19:49:38.996Z,3.77
2023-02-17T19:52:07.478Z,4.23
2023-02-17T19:54:37.586Z,4.27
2023-02-17T19:57:05.574Z,4.70
2023-02-17T19:59:34.392Z,4.53
2023-02-17T20:02:03.554Z,5.23
2023-02-17T20:04:31.628Z,2.70
2023-02-17T20:06:59.435Z,4.33
2023-02-17T20:09:27.243Z,4.07
2023-02-17T20:11:55.172Z,3.53
2023-02-17T20:14:22.971Z,3.87
2023-02-17T20:16:53.288Z,6.03
2023-02-17T20:19:22.523Z,5.97
2023-02-17T20:21:50.374Z,7.73
2023-02-17T20:24:18.284Z,7.03
2023-02-17T20:26:48.752Z,6.23
2023-02-17T20:29:16.495Z,3.63
2023-02-17T20:31:44.674Z,3.83
2023-02-17T20:34:26.950Z,2.17
2023-02-17T20:36:55.724Z,5.70
2023-02-17T20:39:23.741Z,4.37
2023-02-17T20:41:51.618Z,3.57
2023-02-17T20:44:19.956Z,3.17
2023-02-17T20:46:48.219Z,12.03
2023-02-17T20:49:16.300Z,3.90
2023-02-17T20:51:45.394Z,2.70
2023-02-17T20:54:13.276Z,4.97
2023-02-17T20:56:43.735Z,4.03
2023-02-17T20:59:12.879Z,4.90
2023-02-17T21:01:41.593Z,4.73
2023-02-17T21:04:09.700Z,6.30
2023-02-17T21:06:39.918Z,7.20
2023-02-17T21:09:13.300Z,10.07
2023-02-17T21:11:41.271Z,6.20
2023-02-17T21:14:09.379Z,11.23
2023-02-17T21:16:37.791Z,4.87
2023-02-17T21:19:06.071Z,7.37
2023-02-17T21:21:33.925Z,5.20
2023-02-17T21:24:01.717Z,10.13
2023-02-17T21:26:30.861Z,6.50
2023-02-17T21:28:58.595Z,6.93
2023-02-17T21:31:28.826Z,11.97
2023-02-17T21:33:56.984Z,7.67
2023-02-17T21:36:24.831Z,8.03
2023-02-17T21:38:52.649Z,9.67
2023-02-17T21:41:22.779Z,5.80
2023-02-17T21:44:09.374Z,7.97
2023-02-17T21:46:37.742Z,7.37
2023-02-17T21:49:05.469Z,9.57
2023-02-17T21:51:33.419Z,8.63
2023-02-17T21:54:01.279Z,8.27
2023-02-17T21:56:29.122Z,7.10
2023-02-17T21:58:58.295Z,11.83
2023-02-17T22:01:27.648Z,8.00
2023-02-17T22:03:57.576Z,9.27
2023-02-17T22:06:27.253Z,8.03
2023-02-17T22:08:55.726Z,27.03
2023-02-17T22:11:25.272Z,7.33
2023-02-17T22:13:55.722Z,5.33
2023-02-17T22:16:24.998Z,6.10
2023-02-17T22:18:53.164Z,8.90
2023-02-17T22:21:20.953Z,5.57
2023-02-17T22:23:48.817Z,6.90
2023-02-17T22:26:18.408Z,8.93
2023-02-17T22:28:47.055Z,5.83
2023-02-17T22:31:16.516Z,6.07
2023-02-17T22:33:45.751Z,6.63
2023-02-17T22:36:15.976Z,7.60
2023-02-17T22:38:44.510Z,8.33
2023-02-17T22:41:15.128Z,8.87
2023-02-17T22:43:44.332Z,9.17
2023-02-17T22:46:16.093Z,6.90
2023-02-17T22:48:46.821Z,6.00
2023-02-17T22:51:17.669Z,11.70
2023-02-17T22:53:45.675Z,10.03
2023-02-17T22:56:14.311Z,6.30
2023-02-17T22:58:42.432Z,9.10
2023-02-17T23:01:12.247Z,6.90
2023-02-17T23:03:40.165Z,8.10
2023-02-17T23:06:12.374Z,9.87
2023-02-17T23:08:40.897Z,9.93
2023-02-17T23:11:11.234Z,8.77
2023-02-17T23:13:40.023Z,11.00
2023-02-17T23:16:08.985Z,12.60
2023-02-17T23:18:38.845Z,8.33
2023-02-17T23:21:12.833Z,12.87
2023-02-17T23:23:40.957Z,15.00
2023-02-17T23:26:09.287Z,9.67
2023-02-17T23:28:37.515Z,10.10
2023-02-17T23:31:05.427Z,7.47
2023-02-17T23:33:33.220Z,11.53
2023-02-17T23:36:03.966Z,11.27
2023-02-17T23:38:33.539Z,10.83
2023-02-17T23:41:01.843Z,11.67
2023-02-17T23:43:30.006Z,11.27
2023-02-17T23:45:57.923Z,9.00
2023-02-17T23:48:25.650Z,10.27
2023-02-17T23:50:57.255Z,10.87
2023-02-17T23:53:25.004Z,10.47
2023-02-17T23:56:03.602Z,11.70
2023-02-17T23:58:31.905Z,8.50
